Time;durP1;ratioP1;P1;durP2;ratioP2;P2;SDS_P1;SDS_P2;PMS_P1;PMS_P2;Temp;Humidity;BMP_temperature;BMP_pressure;BME280_temperature;BME280_humidity;BME280_pressure;Samples;Min_cycle;Max_cycle;Signal;HPM_P1;HPM_P2
2022/07/17 00:00:53;;;;;;;7.28;4.30;;;9.60;99.90;;;;;;5051135;28;20021;-77
2022/07/17 00:03:19;;;;;;;3.45;3.15;;;9.50;99.90;;;;;;5051298;28;20053;-77
2022/07/17 00:05:44;;;;;;;5.50;3.38;;;9.50;99.90;;;;;;5050779;28;20064;-77
2022/07/17 00:08:11;;;;;;;4.68;4.22;;;9.40;99.90;;;;;;5052351;28;20033;-77
2022/07/17 00:10:42;;;;;;;6.78;5.03;;;9.40;99.90;;;;;;5052322;28;20056;-76
2022/07/17 00:13:09;;;;;;;4.45;4.05;;;9.30;99.90;;;;;;5052500;28;20037;-77
2022/07/17 00:15:35;;;;;;;6.40;4.03;;;9.30;99.90;;;;;;5052367;28;20081;-72
2022/07/17 00:18:01;;;;;;;4.15;3.17;;;9.20;99.90;;;;;;5052264;28;20370;-72
2022/07/17 00:20:28;;;;;;;5.75;4.00;;;9.20;99.90;;;;;;5052153;28;20031;-77
2022/07/17 00:22:55;;;;;;;4.47;3.67;;;9.20;99.90;;;;;;5050607;28;20034;-72
2022/07/17 00:25:21;;;;;;;5.15;3.63;;;9.10;99.90;;;;;;5050801;28;20110;-72
2022/07/17 00:27:47;;;;;;;6.15;3.90;;;9.20;99.90;;;;;;5052148;28;20073;-72
2022/07/17 00:30:13;;;;;;;5.60;4.47;;;9.10;99.90;;;;;;5051962;28;20014;-71
2022/07/17 00:32:39;;;;;;;4.72;3.80;;;9.10;99.90;;;;;;5052037;28;20125;-71
2022/07/17 00:35:07;;;;;;;5.32;3.85;;;9.00;99.90;;;;;;5052038;28;20017;-72
2022/07/17 00:37:39;;;;;;;6.30;4.05;;;9.00;99.90;;;;;;5051934;28;20029;-71
2022/07/17 00:40:05;;;;;;;;;;;8.90;99.90;;;;;;5051486;28;20041;-72
2022/07/17 00:42:31;;;;;;;4.53;3.53;;;8.90;99.90;;;;;;5051869;28;19912;-71
2022/07/17 00:44:57;;;;;;;4.05;3.25;;;8.90;99.90;;;;;;5051789;28;20025;-77
2022/07/17 00:47:22;;;;;;;4.28;3.80;;;8.80;99.90;;;;;;5050626;28;20069;-77
2022/07/17 00:49:49;;;;;;;4.70;4.20;;;8.80;99.90;;;;;;5051833;28;20029;-73
2022/07/17 00:52:16;;;;;;;5.90;3.63;;;8.80;99.90;;;;;;5051696;28;20032;-72
2022/07/17 00:54:44;;;;;;;4.22;3.75;;;8.80;99.90;;;;;;5051525;28;20153;-77
2022/07/17 00:57:13;;;;;;;4.05;3.65;;;8.70;99.90;;;;;;5050159;28;20036;-77
2022/07/17 00:59:39;;;;;;;2.80;2.60;;;8.70;99.90;;;;;;5050250;28;20074;-72
2022/07/17 01:02:07;;;;;;;2.70;2.50;;;8.60;99.90;;;;;;5050075;28;20367;-72
2022/07/17 01:04:34;;;;;;;2.50;2.30;;;8.50;99.90;;;;;;5051410;28;20053;-77
2022/07/17 01:07:00;;;;;;;2.58;2.30;;;8.40;99.90;;;;;;5049929;28;20049;-77
2022/07/17 01:09:27;;;;;;;4.00;3.10;;;8.40;99.90;;;;;;5050211;28;20116;-72
2022/07/17 01:11:54;;;;;;;5.13;4.40;;;8.40;99.90;;;;;;5051352;28;20037;-72
2022/07/17 01:14:21;;;;;;;8.93;5.50;;;8.40;99.90;;;;;;5050113;28;20103;-73
2022/07/17 01:16:47;;;;;;;11.43;7.53;;;8.40;99.90;;;;;;5051276;28;20401;-77
2022/07/17 01:19:13;;;;;;;15.32;8.40;;;8.30;99.90;;;;;;5049981;28;20064;-77
2022/07/17 01:21:41;;;;;;;16.88;8.05;;;8.30;99.90;;;;;;5049923;28;20021;-76
2022/07/17 01:24:07;;;;;;;14.00;7.72;;;8.30;99.90;;;;;;5051428;28;20025;-76
2022/07/17 01:26:33;;;;;;;14.27;8.55;;;8.30;99.90;;;;;;5049849;28;20033;-76
2022/07/17 01:28:59;;;;;;;14.18;7.88;;;8.30;99.90;;;;;;5049930;28;20029;-72
2022/07/17 01:31:25;;;;;;;9.77;7.15;;;8.30;99.90;;;;;;5051000;28;20027;-76
2022/07/17 01:33:51;;;;;;;12.52;7.70;;;8.30;99.90;;;;;;5051197;28;20640;-72
2022/07/17 01:36:22;;;;;;;11.98;6.22;;;8.30;99.90;;;;;;5050874;28;20024;-72
2022/07/17 01:38:48;;;;;;;9.90;6.17;;;8.30;99.90;;;;;;5051166;28;20134;-72
2022/07/17 01:41:14;;;;;;;12.85;7.38;;;8.20;99.90;;;;;;5050844;28;20029;-77
2022/07/17 01:43:40;;;;;;;14.93;8.45;;;8.20;99.90;;;;;;5051041;28;20029;-77
2022/07/17 01:46:06;;;;;;;20.60;9.48;;;8.20;99.90;;;;;;5050921;28;20028;-72
2022/07/17 01:48:31;;;;;;;24.58;9.93;;;8.20;99.90;;;;;;5050855;28;20099;-72
2022/07/17 01:50:57;;;;;;;18.98;7.05;;;8.10;99.90;;;;;;5050458;28;20027;-77
2022/07/17 01:53:23;;;;;;;23.42;5.53;;;8.10;99.90;;;;;;5050040;28;20025;-72
2022/07/17 01:55:49;;;;;;;11.25;4.30;;;7.90;99.90;;;;;;5050938;28;20037;-77
2022/07/17 01:58:15;;;;;;;22.00;4.85;;;7.90;99.90;;;;;;5050534;28;20037;-77
2022/07/17 02:00:40;;;;;;;12.05;4.93;;;7.70;99.90;;;;;;5050683;28;20044;-71
2022/07/17 02:03:06;;;;;;;11.13;4.03;;;7.70;99.90;;;;;;5050556;28;20474;-72
2022/07/17 02:05:32;;;;;;;6.50;3.75;;;7.60;99.90;;;;;;5050582;28;20048;-72
2022/07/17 02:07:58;;;;;;;8.10;4.65;;;7.60;99.90;;;;;;5050541;28;20049;-71
2022/07/17 02:10:23;;;;;;;7.32;4.95;;;7.50;99.90;;;;;;5050632;28;20014;-73
2022/07/17 02:12:49;;;;;;;7.85;4.88;;;7.50;99.90;;;;;;5050520;28;20014;-77
2022/07/17 02:15:15;;;;;;;7.93;4.50;;;7.60;99.90;;;;;;5050751;28;20025;-71
2022/07/17 02:17:42;;;;;;;10.25;5.28;;;7.60;99.90;;;;;;5050372;28;20093;-71
2022/07/17 02:20:09;;;;;;;12.25;6.85;;;7.70;99.90;;;;;;5050357;28;20169;-77
2022/07/17 02:22:35;;;;;;;9.85;6.45;;;7.80;99.90;;;;;;5050227;28;20025;-71
2022/07/17 02:25:01;;;;;;;18.70;7.20;;;7.80;99.90;;;;;;5049193;28;20024;-72
2022/07/17 02:27:27;;;;;;;10.38;6.80;;;7.80;99.90;;;;;;5050392;28;20120;-76
2022/07/17 02:29:53;;;;;;;11.50;6.43;;;7.80;99.90;;;;;;5050433;28;20101;-72
2022/07/17 02:32:19;;;;;;;8.60;5.72;;;7.90;99.90;;;;;;5050175;28;20557;-76
2022/07/17 02:34:44;;;;;;;10.57;6.07;;;7.90;99.90;;;;;;5050277;28;20027;-72
2022/07/17 02:37:10;;;;;;;10.35;6.95;;;7.90;99.90;;;;;;5050166;28;20078;-72
2022/07/17 02:39:36;;;;;;;8.20;5.82;;;7.90;99.90;;;;;;5048891;28;20482;-77
2022/07/17 02:42:02;;;;;;;10.77;5.72;;;7.90;99.90;;;;;;5048806;28;20442;-71
2022/07/17 02:44:27;;;;;;;11.25;6.55;;;7.80;99.90;;;;;;5050229;28;20029;-77
2022/07/17 02:46:53;;;;;;;7.20;5.47;;;7.80;99.90;;;;;;5050040;28;20025;-78
2022/07/17 02:49:18;;;;;;;6.45;4.57;;;7.80;99.90;;;;;;5050391;28;20025;-73
2022/07/17 02:51:44;;;;;;;9.85;5.10;;;7.80;99.90;;;;;;5048777;28;20104;-72
2022/07/17 02:54:10;;;;;;;5.28;3.78;;;7.80;99.90;;;;;;5049905;28;20033;-72
2022/07/17 02:56:35;;;;;;;7.63;6.00;;;7.70;99.90;;;;;;5049878;28;20021;-71
2022/07/17 02:59:01;;;;;;;7.45;4.57;;;7.70;99.90;;;;;;5049978;28;20131;-72
2022/07/17 03:01:27;;;;;;;15.60;5.95;;;7.70;99.90;;;;;;5048665;28;20572;-78
2022/07/17 03:03:52;;;;;;;11.00;6.22;;;7.70;99.90;;;;;;5051702;28;20021;-72
2022/07/17 03:06:18;;;;;;;15.35;8.30;;;7.80;99.90;;;;;;5051928;28;20020;-71
2022/07/17 03:08:44;;;;;;;17.25;8.13;;;7.80;99.90;;;;;;5052117;28;20025;-77
2022/07/17 03:11:09;;;;;;;13.38;8.23;;;7.80;99.90;;;;;;5053357;28;20025;-72
2022/07/17 03:13:35;;;;;;;17.05;9.98;;;7.80;99.90;;;;;;5053181;28;20029;-77
2022/07/17 03:16:01;;;;;;;15.88;9.10;;;7.80;99.90;;;;;;5052036;28;20069;-77
2022/07/17 03:18:26;;;;;;;10.20;6.88;;;7.90;99.90;;;;;;5053101;28;20032;-78
2022/07/17 03:20:52;;;;;;;15.48;7.20;;;7.90;99.90;;;;;;5053173;28;20032;-71
2022/07/17 03:23:18;;;;;;;14.00;7.03;;;7.90;99.90;;;;;;5053066;28;20025;-72
2022/07/17 03:25:44;;;;;;;12.90;6.85;;;7.90;99.90;;;;;;5053054;28;20028;-77
2022/07/17 03:28:10;;;;;;;8.30;5.75;;;7.90;99.90;;;;;;5052874;28;20029;-78
2022/07/17 03:30:35;;;;;;;11.57;6.25;;;7.80;99.90;;;;;;5053033;28;20485;-77
2022/07/17 03:33:01;;;;;;;9.13;5.65;;;7.80;99.90;;;;;;5051770;28;20021;-72
2022/07/17 03:35:27;;;;;;;8.75;6.30;;;7.80;99.90;;;;;;5052922;28;20466;-73
2022/07/17 03:37:52;;;;;;;8.73;5.32;;;7.80;99.90;;;;;;5052846;28;20029;-77
2022/07/17 03:40:18;;;;;;;9.43;4.95;;;7.80;99.90;;;;;;5051486;28;20037;-75
2022/07/17 03:42:44;;;;;;;6.65;5.07;;;7.80;99.90;;;;;;5052793;28;20033;-72
2022/07/17 03:45:10;;;;;;;8.35;5.57;;;7.70;99.90;;;;;;5052832;28;20065;-73
2022/07/17 03:47:35;;;;;;;9.60;6.30;;;7.70;99.90;;;;;;5052757;28;20021;-73
2022/07/17 03:50:01;;;;;;;8.30;5.30;;;7.70;99.90;;;;;;5052864;28;20029;-73
2022/07/17 03:52:27;;;;;;;6.95;4.63;;;7.80;99.90;;;;;;5052676;28;20021;-77
2022/07/17 03:54:52;;;;;;;9.20;5.03;;;8.00;99.90;;;;;;5051224;28;20515;-77
2022/07/17 03:57:18;;;;;;;9.65;5.20;;;8.20;99.90;;;;;;5051322;28;20112;-72
2022/07/17 03:59:44;;;;;;;5.93;4.55;;;8.20;99.90;;;;;;5052449;28;20393;-74
2022/07/17 04:02:09;;;;;;;6.55;4.93;;;8.20;99.90;;;;;;5051225;28;20029;-76
2022/07/17 04:04:35;;;;;;;7.97;5.28;;;8.40;99.90;;;;;;5052389;28;20430;-73
2022/07/17 04:07:01;;;;;;;7.47;4.65;;;8.40;99.90;;;;;;5052546;28;20052;-77
2022/07/17 04:09:27;;;;;;;6.63;5.00;;;8.50;99.90;;;;;;5051233;28;20426;-73
2022/07/17 04:11:52;;;;;;;6.30;4.88;;;8.50;99.90;;;;;;5051138;28;20486;-72
2022/07/17 04:14:18;;;;;;;8.55;5.97;;;8.60;99.90;;;;;;5050458;28;20025;-77
2022/07/17 04:16:44;;;;;;;9.27;5.80;;;8.80;99.90;;;;;;5050646;28;20550;-72
2022/07/17 04:19:09;;;;;;;9.10;5.50;;;9.10;99.90;;;;;;5052105;28;20132;-73
2022/07/17 04:21:35;;;;;;;8.65;5.72;;;9.30;99.90;;;;;;5052302;28;20025;-76
2022/07/17 04:24:01;;;;;;;7.15;4.90;;;9.40;99.90;;;;;;5052145;28;20025;-73
2022/07/17 04:26:26;;;;;;;6.07;4.97;;;9.60;99.90;;;;;;5052235;28;20032;-73
2022/07/17 04:28:52;;;;;;;7.07;5.05;;;9.70;99.90;;;;;;5052112;28;20017;-73
2022/07/17 04:31:18;;;;;;;6.82;5.32;;;9.80;99.90;;;;;;5052152;28;20065;-73
2022/07/17 04:33:43;;;;;;;6.88;5.28;;;9.70;99.90;;;;;;5052221;28;20049;-77
2022/07/17 04:36:09;;;;;;;5.88;5.05;;;9.90;99.90;;;;;;5051913;28;20025;-77
2022/07/17 04:38:35;;;;;;;6.32;5.70;;;10.10;99.90;;;;;;5050536;28;20482;-73
2022/07/17 04:41:01;;;;;;;7.82;5.95;;;10.40;99.90;;;;;;5050618;28;20025;-77
2022/07/17 04:43:26;;;;;;;8.95;4.63;;;10.60;99.90;;;;;;5051884;28;20062;-73
2022/07/17 04:45:52;;;;;;;7.43;5.43;;;10.90;99.90;;;;;;5051957;28;20033;-77
2022/07/17 04:48:18;;;;;;;6.70;4.40;;;11.10;99.90;;;;;;5051898;28;20109;-77
2022/07/17 04:50:44;;;;;;;6.43;4.55;;;11.40;99.90;;;;;;5050570;28;20065;-78
2022/07/17 04:53:09;;;;;;;5.90;3.92;;;11.60;99.90;;;;;;5051827;28;20024;-73
2022/07/17 04:55:36;;;;;;;5.57;4.25;;;11.90;99.90;;;;;;5051753;28;20078;-77
2022/07/17 04:58:02;;;;;;;3.85;3.40;;;12.00;99.90;;;;;;5051708;28;20021;-77
2022/07/17 05:00:28;;;;;;;9.25;3.47;;;12.00;99.90;;;;;;5051601;28;20060;-77
2022/07/17 05:02:54;;;;;;;6.80;3.70;;;12.10;99.90;;;;;;5051581;28;20060;-73
2022/07/17 05:05:20;;;;;;;6.50;3.95;;;12.10;99.90;;;;;;5051387;28;20056;-74
2022/07/17 05:07:45;;;;;;;5.18;3.80;;;12.10;99.90;;;;;;5051273;28;20607;-77
2022/07/17 05:10:11;;;;;;;5.20;3.55;;;12.10;99.90;;;;;;5051475;28;20142;-73
2022/07/17 05:12:37;;;;;;;3.70;3.00;;;12.20;99.90;;;;;;5050314;28;20020;-72
2022/07/17 05:15:03;;;;;;;3.58;2.90;;;12.30;99.90;;;;;;5051458;28;20057;-76
2022/07/17 05:17:29;;;;;;;4.30;2.70;;;12.50;99.90;;;;;;5050173;28;20398;-72
2022/07/17 05:19:54;;;;;;;7.60;2.88;;;12.50;99.90;;;;;;5049919;28;20033;-73
2022/07/17 05:22:20;;;;;;;6.13;3.08;;;12.60;99.90;;;;;;5051299;28;20390;-77
2022/07/17 05:24:46;;;;;;;4.35;3.17;;;12.60;99.90;;;;;;5050019;28;20021;-74
2022/07/17 05:27:11;;;;;;;6.28;3.00;;;12.70;99.90;;;;;;5050837;28;20054;-73
2022/07/17 05:29:37;;;;;;;6.00;2.78;;;12.80;99.90;;;;;;5051041;28;20390;-74
2022/07/17 05:32:03;;;;;;;4.82;3.20;;;12.90;99.90;;;;;;5051186;28;20063;-73
2022/07/17 05:34:29;;;;;;;3.80;2.47;;;12.90;99.90;;;;;;5049795;28;20502;-73
2022/07/17 05:36:55;;;;;;;3.85;3.20;;;13.00;99.90;;;;;;5051083;28;20053;-73
2022/07/17 05:39:20;;;;;;;3.78;2.75;;;13.10;99.90;;;;;;5050822;28;20546;-76
2022/07/17 05:41:46;;;;;;;3.70;2.50;;;13.20;99.90;;;;;;5050883;28;20049;-73
2022/07/17 05:44:12;;;;;;;6.68;2.78;;;13.20;99.90;;;;;;5049504;28;20069;-76
2022/07/17 05:46:37;;;;;;;5.63;3.08;;;13.30;99.90;;;;;;5050916;28;20017;-75
2022/07/17 05:49:03;;;;;;;4.32;2.60;;;13.40;99.90;;;;;;5050907;28;20021;-74
2022/07/17 05:51:29;;;;;;;4.55;2.45;;;13.50;99.90;;;;;;5050693;28;20078;-72
2022/07/17 05:53:55;;;;;;;5.38;2.83;;;13.60;99.90;;;;;;5050962;28;20025;-77
2022/07/17 05:56:20;;;;;;;4.80;2.90;;;13.70;99.90;;;;;;5050614;28;20073;-77
2022/07/17 05:58:46;;;;;;;6.00;2.42;;;13.70;99.90;;;;;;5049580;28;20474;-74
2022/07/17 06:01:12;;;;;;;5.63;2.28;;;13.70;99.90;;;;;;5050687;28;20025;-73
2022/07/17 06:03:37;;;;;;;4.68;2.58;;;13.70;99.90;;;;;;5030762;28;20497;-74
2022/07/17 06:06:03;;;;;;;8.57;2.85;;;13.80;99.90;;;;;;5030664;28;20029;-73
2022/07/17 06:08:29;;;;;;;4.60;2.58;;;13.90;99.90;;;;;;5030795;28;20368;-73
2022/07/17 06:10:54;;;;;;;4.97;2.65;;;14.00;99.90;;;;;;5030467;28;20030;-77
2022/07/17 06:13:20;;;;;;;5.93;2.33;;;14.10;99.90;;;;;;5029235;28;20021;-74
2022/07/17 06:15:46;;;;;;;7.90;2.50;;;14.10;99.90;;;;;;5029153;28;20474;-77
2022/07/17 06:18:12;;;;;;;6.53;2.80;;;14.20;99.90;;;;;;5030540;28;20049;-74
2022/07/17 06:20:37;;;;;;;4.70;2.40;;;14.20;99.90;;;;;;5030521;28;20076;-77
2022/07/17 06:23:03;;;;;;;6.57;2.63;;;14.40;99.90;;;;;;5047227;28;20032;-72
2022/07/17 06:25:29;;;;;;;6.15;2.50;;;14.50;99.90;;;;;;5049966;28;20537;-73
2022/07/17 06:27:54;;;;;;;4.72;2.03;;;14.70;99.90;;;;;;5048741;28;20367;-73
2022/07/17 06:30:20;;;;;;;10.80;2.53;;;14.60;99.90;;;;;;5049951;28;20120;-77
2022/07/17 06:32:46;;;;;;;5.13;2.30;;;14.80;99.90;;;;;;5049841;28;20529;-77
2022/07/17 06:35:12;;;;;;;2.80;2.00;;;15.00;99.90;;;;;;5048555;28;20390;-77
2022/07/17 06:37:38;;;;;;;5.68;1.90;;;15.10;99.90;;;;;;5049754;28;20104;-77
2022/07/17 06:40:04;;;;;;;3.03;2.05;;;15.20;99.90;;;;;;5065485;27;20120;-78
2022/07/17 06:42:30;;;;;;;6.15;2.55;;;15.30;99.90;;;;;;5125716;27;20064;-72
2022/07/17 06:44:56;;;;;;;3.55;2.47;;;15.30;99.90;;;;;;5076797;27;20029;-73
2022/07/17 06:47:21;;;;;;;4.43;2.10;;;15.40;99.90;;;;;;5100912;27;20090;-72
2022/07/17 06:49:47;;;;;;;5.43;2.00;;;15.30;99.90;;;;;;5111020;27;20011;-74
2022/07/17 06:52:13;;;;;;;5.80;2.22;;;15.50;99.90;;;;;;5099371;27;20030;-72
2022/07/17 06:54:38;;;;;;;4.95;1.80;;;15.50;99.90;;;;;;5110658;27;20030;-73
2022/07/17 06:57:04;;;;;;;3.22;2.45;;;15.70;99.90;;;;;;5157236;27;20064;-74
2022/07/17 06:59:30;;;;;;;4.25;1.73;;;15.90;99.90;;;;;;5158425;27;20034;-77
2022/07/17 07:01:55;;;;;;;5.35;1.60;;;16.10;99.90;;;;;;5158318;27;20018;-77
2022/07/17 07:04:21;;;;;;;4.05;1.70;;;16.20;99.90;;;;;;5157202;27;20083;-77
2022/07/17 07:06:47;;;;;;;3.13;1.40;;;16.10;99.20;;;;;;5158112;27;20049;-77
2022/07/17 07:09:12;;;;;;;2.65;1.55;;;16.00;94.00;;;;;;5158560;27;20026;-73
2022/07/17 07:11:39;;;;;;;7.03;1.88;;;16.10;99.80;;;;;;5158137;27;20442;-72
2022/07/17 07:14:05;;;;;;;4.10;1.52;;;16.20;99.80;;;;;;5158492;27;20019;-73
2022/07/17 07:16:31;;;;;;;2.20;1.58;;;16.40;99.90;;;;;;5158323;27;20433;-72
2022/07/17 07:18:57;;;;;;;2.92;1.20;;;16.40;93.10;;;;;;5158321;27;20031;-76
2022/07/17 07:21:26;;;;;;;2.17;1.25;;;16.40;90.40;;;;;;5158012;27;20026;-72
2022/07/17 07:23:52;;;;;;;4.00;1.52;;;16.60;90.90;;;;;;5158054;27;20031;-73
2022/07/17 07:26:18;;;;;;;5.97;1.52;;;16.80;93.20;;;;;;5157869;27;20376;-72
2022/07/17 07:28:44;;;;;;;4.45;2.25;;;16.80;90.30;;;;;;5158115;27;20027;-72
2022/07/17 07:31:10;;;;;;;3.13;1.20;;;16.90;89.40;;;;;;5157870;27;20019;-72
2022/07/17 07:33:36;;;;;;;4.03;1.10;;;16.90;80.60;;;;;;5157859;27;20011;-72
2022/07/17 07:36:02;;;;;;;3.35;1.50;;;16.90;83.60;;;;;;5157928;27;20031;-75
2022/07/17 07:38:28;;;;;;;4.00;1.10;;;16.90;84.70;;;;;;5157818;27;20042;-76
2022/07/17 07:40:54;;;;;;;3.03;1.15;;;17.00;78.90;;;;;;5144830;27;20075;-76
2022/07/17 07:43:20;;;;;;;2.35;1.00;;;17.20;79.70;;;;;;5135668;27;20383;-76
2022/07/17 07:45:46;;;;;;;3.53;1.67;;;17.40;78.00;;;;;;5136850;27;20110;-77
2022/07/17 07:48:12;;;;;;;3.72;1.30;;;17.30;76.90;;;;;;5136887;27;20495;-77
2022/07/17 07:50:37;;;;;;;3.95;1.10;;;17.30;75.90;;;;;;5136921;27;20476;-76
2022/07/17 07:53:03;;;;;;;2.05;1.08;;;17.50;76.40;;;;;;5136709;27;20031;-76
2022/07/17 07:55:29;;;;;;;3.15;1.10;;;17.70;73.80;;;;;;5136770;27;20031;-76
2022/07/17 07:58:08;;;;;;;3.50;1.25;;;17.60;71.80;;;;;;5136616;27;20494;-75
2022/07/17 08:00:35;;;;;;;1.83;1.10;;;17.70;78.60;;;;;;5136831;27;20028;-76
2022/07/17 08:03:01;;;;;;;3.40;1.42;;;17.70;76.40;;;;;;5152581;27;20021;-76
2022/07/17 08:05:27;;;;;;;3.58;1.20;;;17.80;75.10;;;;;;5157208;27;20022;-77
2022/07/17 08:07:53;;;;;;;3.97;0.70;;;17.80;70.90;;;;;;5157206;27;20057;-76
2022/07/17 08:10:19;;;;;;;3.05;1.02;;;18.00;67.90;;;;;;5157209;27;20102;-75
2022/07/17 08:12:44;;;;;;;2.70;1.17;;;18.00;70.20;;;;;;5157056;27;20383;-76
2022/07/17 08:15:11;;;;;;;1.85;0.88;;;18.20;70.40;;;;;;5157141;27;20023;-73
2022/07/17 08:17:37;;;;;;;3.22;0.93;;;18.40;68.30;;;;;;5156927;27;20023;-76
2022/07/17 08:20:03;;;;;;;1.80;0.75;;;18.30;67.40;;;;;;5157044;27;20540;-76
2022/07/17 08:22:29;;;;;;;2.35;0.98;;;18.30;63.80;;;;;;5155449;27;20432;-76
2022/07/17 08:24:54;;;;;;;2.83;0.93;;;18.40;64.50;;;;;;5155646;27;20057;-75
2022/07/17 08:27:21;;;;;;;3.42;0.82;;;18.00;64.60;;;;;;5156597;27;20015;-75
2022/07/17 08:29:47;;;;;;;3.33;0.70;;;18.10;65.20;;;;;;5155449;27;20092;-75
2022/07/17 08:32:13;;;;;;;1.80;0.90;;;17.80;67.10;;;;;;5156677;27;20040;-75
2022/07/17 08:34:38;;;;;;;1.88;0.90;;;17.90;69.00;;;;;;5157031;27;20034;-75
2022/07/17 08:37:04;;;;;;;2.33;0.90;;;18.20;66.70;;;;;;5155255;27;20110;-76
2022/07/17 08:39:30;;;;;;;2.15;1.00;;;18.20;66.20;;;;;;5156568;27;20031;-76
2022/07/17 08:41:56;;;;;;;2.78;1.10;;;18.40;66.60;;;;;;5134513;27;20033;-76
2022/07/17 08:44:21;;;;;;;2.50;1.13;;;18.50;65.70;;;;;;5135842;27;20426;-75
2022/07/17 08:46:48;;;;;;;4.85;0.90;;;18.50;67.20;;;;;;5135640;27;20061;-76
2022/07/17 08:49:14;;;;;;;0.98;0.90;;;18.40;65.80;;;;;;5134157;27;20023;-76
2022/07/17 08:51:39;;;;;;;3.25;1.00;;;18.50;66.20;;;;;;5031445;28;20029;-76
2022/07/17 08:54:05;;;;;;;1.52;0.90;;;18.50;64.60;;;;;;5031407;28;20060;-76
2022/07/17 08:56:31;;;;;;;2.47;0.93;;;18.80;65.30;;;;;;5031366;28;20055;-76
2022/07/17 08:58:56;;;;;;;2.35;1.25;;;18.90;65.10;;;;;;5031287;28;20033;-76
2022/07/17 09:01:23;;;;;;;2.17;0.70;;;19.10;64.60;;;;;;5045238;27;20115;-75
2022/07/17 09:03:57;;;;;;;3.33;1.02;;;18.80;64.20;;;;;;5156025;27;20022;-75
2022/07/17 09:06:23;;;;;;;2.45;0.90;;;18.90;62.60;;;;;;5154555;27;20133;-76
2022/07/17 09:09:09;;;;;;;1.20;0.70;;;19.10;62.20;;;;;;5154743;27;20026;-75
2022/07/17 09:12:03;;;;;;;2.38;0.80;;;19.50;63.70;;;;;;5155798;27;20042;-75
2022/07/17 09:14:40;;;;;;;4.38;0.77;;;19.30;61.90;;;;;;5153832;27;20441;-76
2022/07/17 09:17:08;;;;;;;1.92;0.93;;;19.00;62.70;;;;;;5154525;27;20038;-76
2022/07/17 09:19:40;;;;;;;3.30;1.05;;;19.20;62.00;;;;;;5155560;27;20547;-76
2022/07/17 09:22:12;;;;;;;3.65;0.75;;;19.10;59.60;;;;;;5155834;27;20026;-76
2022/07/17 09:24:58;;;;;;;1.98;0.77;;;19.10;59.80;;;;;;5154433;27;20051;-76
2022/07/17 09:27:23;;;;;;;1.77;0.65;;;19.30;59.90;;;;;;5133198;27;20020;-76
2022/07/17 09:30:04;;;;;;;1.70;0.63;;;19.30;59.50;;;;;;5134959;27;20064;-74
2022/07/17 09:32:33;;;;;;;2.00;0.70;;;19.10;59.40;;;;;;5134963;27;20031;-72
2022/07/17 09:35:02;;;;;;;2.95;0.77;;;18.70;59.30;;;;;;5134780;27;20030;-75
2022/07/17 09:37:29;;;;;;;3.85;0.90;;;18.80;59.20;;;;;;5134960;27;20029;-72
2022/07/17 09:39:56;;;;;;;1.08;0.90;;;19.10;60.00;;;;;;5119893;27;20032;-72
2022/07/17 09:42:23;;;;;;;0.75;0.60;;;18.90;58.80;;;;;;5050503;28;20021;-72
2022/07/17 09:45:09;;;;;;;2.28;0.70;;;18.70;58.40;;;;;;5049265;28;20025;-73
2022/07/17 09:47:38;;;;;;;3.63;0.70;;;18.80;58.50;;;;;;5049318;28;20049;-72
2022/07/17 09:50:06;;;;;;;3.55;0.80;;;19.00;58.30;;;;;;5050639;28;20018;-73
2022/07/17 09:52:34;;;;;;;1.17;0.57;;;18.70;57.50;;;;;;5050421;28;20057;-73
2022/07/17 09:55:01;;;;;;;2.42;0.90;;;18.70;58.70;;;;;;5050275;28;20021;-72
2022/07/17 09:57:30;;;;;;;3.65;1.08;;;18.80;58.80;;;;;;5050393;28;20036;-73
2022/07/17 10:00:00;;;;;;;3.90;0.60;;;18.70;58.30;;;;;;5050253;28;20124;-77
2022/07/17 10:02:26;;;;;;;0.93;0.60;;;18.50;58.40;;;;;;5050417;28;20022;-73
2022/07/17 10:04:53;;;;;;;1.23;0.80;;;18.80;59.10;;;;;;5047227;28;20037;-72
2022/07/17 10:07:19;;;;;;;4.53;1.00;;;19.20;57.70;;;;;;5030163;28;20092;-72
2022/07/17 10:09:46;;;;;;;0.88;0.77;;;19.60;57.80;;;;;;5029052;28;20022;-73
2022/07/17 10:12:13;;;;;;;0.73;0.65;;;19.50;58.40;;;;;;5029699;28;20060;-72
2022/07/17 10:14:41;;;;;;;1.23;0.90;;;19.30;58.20;;;;;;5029713;28;20078;-72
2022/07/17 10:17:11;;;;;;;1.35;0.68;;;18.80;56.40;;;;;;5030061;28;20394;-77
2022/07/17 10:19:52;;;;;;;2.08;0.52;;;18.80;56.00;;;;;;5030025;28;20041;-77
2022/07/17 10:22:19;;;;;;;2.78;0.70;;;19.10;56.50;;;;;;5028786;28;20379;-77
2022/07/17 10:24:52;;;;;;;0.77;0.52;;;19.70;57.00;;;;;;5028844;28;20022;-76
2022/07/17 10:27:28;;;;;;;;;;;19.80;56.00;;;;;;5030459;28;20733;-76
2022/07/17 10:30:05;;;;;;;3.67;1.20;;;19.10;55.40;;;;;;5028826;28;19905;-72
2022/07/17 10:32:31;;;;;;;1.40;1.30;;;18.90;55.40;;;;;;5029989;28;20070;-72
2022/07/17 10:35:03;;;;;;;4.50;1.30;;;19.20;55.50;;;;;;5028664;28;20021;-72
2022/07/17 10:37:34;;;;;;;2.72;0.90;;;19.60;56.20;;;;;;5091787;28;20080;-71
2022/07/17 10:40:06;;;;;;;1.67;0.60;;;19.70;54.90;;;;;;5113408;27;20508;-73
2022/07/17 10:42:41;;;;;;;2.60;0.60;;;19.90;53.10;;;;;;5048700;28;20070;-76
2022/07/17 10:45:18;;;;;;;2.10;0.77;;;19.80;55.60;;;;;;5048437;28;20096;-76
2022/07/17 10:47:53;;;;;;;2.00;0.75;;;19.70;54.60;;;;;;5049883;28;20048;-72
2022/07/17 10:50:23;;;;;;;0.77;0.57;;;19.40;53.10;;;;;;5049508;28;20036;-75
2022/07/17 10:53:07;;;;;;;2.58;0.90;;;19.40;54.90;;;;;;5049618;28;20025;-72
2022/07/17 10:55:35;;;;;;;1.05;0.85;;;19.50;55.00;;;;;;5049519;28;20113;-72
2022/07/17 10:58:03;;;;;;;1.63;0.77;;;19.80;55.50;;;;;;5048242;28;20028;-72
2022/07/17 11:00:29;;;;;;;0.63;0.63;;;20.30;52.20;;;;;;5048191;28;20502;-76
2022/07/17 11:02:55;;;;;;;2.63;0.90;;;20.60;50.50;;;;;;5049399;28;20488;-72
2022/07/17 11:05:21;;;;;;;1.15;0.60;;;20.80;49.30;;;;;;5049494;28;20104;-73
2022/07/17 11:07:58;;;;;;;1.73;0.60;;;20.90;50.50;;;;;;5049556;28;20077;-73
2022/07/17 11:10:26;;;;;;;2.58;1.45;;;20.90;49.90;;;;;;5048170;28;20025;-76
2022/07/17 11:13:08;;;;;;;2.42;1.10;;;20.50;49.80;;;;;;5048250;28;20029;-72
2022/07/17 11:15:48;;;;;;;5.10;1.52;;;20.20;51.00;;;;;;5048546;28;20017;-72
2022/07/17 11:18:19;;;;;;;2.83;0.70;;;20.20;52.20;;;;;;5049508;28;20025;-72
2022/07/17 11:20:54;;;;;;;3.45;1.15;;;20.50;54.00;;;;;;5049236;28;20077;-71
2022/07/17 11:23:22;;;;;;;2.75;0.85;;;20.80;53.40;;;;;;5084387;27;20022;-71
2022/07/17 11:26:05;;;;;;;1.95;0.55;;;21.10;53.00;;;;;;5051730;28;20529;-72
2022/07/17 11:28:42;;;;;;;2.80;0.68;;;21.20;51.10;;;;;;5052898;28;20017;-72
2022/07/17 11:31:20;;;;;;;3.30;0.93;;;21.50;52.90;;;;;;5052810;28;20017;-72
2022/07/17 11:33:55;;;;;;;4.90;0.85;;;21.20;50.20;;;;;;5052815;28;20021;-76
2022/07/17 11:36:38;;;;;;;5.07;1.17;;;21.30;49.70;;;;;;5051444;28;20033;-72
2022/07/17 11:39:16;;;;;;;1.67;0.55;;;21.30;47.70;;;;;;5052098;28;20120;-76
2022/07/17 11:41:52;;;;;;;2.22;0.70;;;20.90;48.90;;;;;;5051136;28;20021;-76
2022/07/17 11:44:20;;;;;;;2.72;1.05;;;20.40;49.00;;;;;;5051257;28;20394;-76
2022/07/17 11:46:49;;;;;;;2.42;0.77;;;20.80;52.00;;;;;;5052276;28;20389;-72
2022/07/17 11:49:26;;;;;;;4.45;1.05;;;21.10;52.40;;;;;;5052674;28;20025;-72
2022/07/17 11:51:52;;;;;;;2.38;0.70;;;21.30;51.40;;;;;;5052448;28;20029;-71
2022/07/17 11:54:17;;;;;;;2.53;0.52;;;21.60;52.60;;;;;;5053679;28;20066;-76
2022/07/17 11:56:53;;;;;;;1.73;0.95;;;21.90;50.40;;;;;;5053057;28;20029;-72
2022/07/17 11:59:28;;;;;;;2.40;0.60;;;22.00;47.80;;;;;;5052558;28;20032;-75
2022/07/17 12:01:55;;;;;;;2.35;0.80;;;21.90;46.70;;;;;;5052309;28;20049;-72
2022/07/17 12:04:21;;;;;;;2.08;0.68;;;22.10;47.80;;;;;;5052498;28;20025;-76
2022/07/17 12:06:59;;;;;;;1.90;0.90;;;21.90;48.10;;;;;;5052001;28;20092;-72
2022/07/17 12:09:33;;;;;;;3.00;0.63;;;21.80;46.90;;;;;;5052101;28;20109;-72
2022/07/17 12:11:59;;;;;;;2.83;0.60;;;21.50;47.00;;;;;;5051911;28;20497;-72
2022/07/17 12:14:25;;;;;;;0.88;0.68;;;21.60;46.50;;;;;;5051949;28;20478;-73
2022/07/17 12:16:51;;;;;;;2.25;0.70;;;21.90;46.90;;;;;;5052293;27;20036;-72
2022/07/17 12:19:22;;;;;;;1.60;0.70;;;22.10;45.70;;;;;;5126214;27;20115;-72
2022/07/17 12:21:56;;;;;;;2.53;0.77;;;22.10;46.00;;;;;;5081781;27;20063;-76
2022/07/17 12:24:28;;;;;;;0.85;0.50;;;21.50;46.80;;;;;;5114294;27;20352;-77
2022/07/17 12:26:59;;;;;;;2.70;0.90;;;21.60;47.10;;;;;;5043206;27;20037;-77
2022/07/17 12:29:25;;;;;;;3.15;0.93;;;21.50;46.50;;;;;;5045376;27;20017;-77
2022/07/17 12:32:21;;;;;;;2.63;0.90;;;21.70;46.90;;;;;;5082835;27;20038;-71
2022/07/17 12:34:48;;;;;;;3.05;0.73;;;21.80;46.60;;;;;;5049840;27;20045;-71
2022/07/17 12:37:23;;;;;;;0.47;0.47;;;21.90;44.40;;;;;;5081397;27;20068;-77
2022/07/17 12:39:49;;;;;;;2.88;0.47;;;22.00;45.60;;;;;;5131276;27;20043;-78
2022/07/17 12:42:16;;;;;;;3.20;0.73;;;22.20;45.00;;;;;;5104886;27;20116;-76
2022/07/17 12:44:42;;;;;;;2.53;0.63;;;22.50;46.10;;;;;;5059757;27;20062;-77
2022/07/17 12:47:08;;;;;;;2.15;0.68;;;22.60;46.00;;;;;;5067073;27;20042;-77
2022/07/17 12:49:34;;;;;;;2.92;1.02;;;22.50;45.20;;;;;;5070007;27;20116;-77
2022/07/17 12:52:00;;;;;;;1.00;0.70;;;22.30;45.40;;;;;;5098614;27;20492;-77